Time;durP1;ratioP1;P1;durP2;ratioP2;P2;SDS_P1;SDS_P2;PMS_P1;PMS_P2;Temp;Humidity;BMP_temperature;BMP_pressure;BME280_temperature;BME280_humidity;BME280_pressure;Samples;Min_cycle;Max_cycle;Signal;HPM_P1;HPM_P2
2023/12/09 00:01:30;;;;;;;28.03;20.17;;;;;;;;;;4990179;28;20299;-81
2023/12/09 00:03:56;;;;;;;27.27;20.37;;;;;;;;;;4982007;28;20259;-81
2023/12/09 00:06:22;;;;;;;27.93;19.93;;;;;;;;;;4974283;28;20207;-82
2023/12/09 00:08:50;;;;;;;24.77;17.43;;;;;;;;;;4972471;28;20299;-81
2023/12/09 00:11:16;;;;;;;24.90;17.37;;;;;;;;;;4962143;28;20176;-82
2023/12/09 00:13:42;;;;;;;24.97;16.83;;;;;;;;;;4964532;28;20262;-81
2023/12/09 00:16:09;;;;;;;24.50;17.27;;;;;;;;;;4989615;28;20183;-81
2023/12/09 00:18:35;;;;;;;23.47;17.00;;;;;;;;;;4982927;28;20656;-82
2023/12/09 00:21:01;;;;;;;21.50;15.93;;;;;;;;;;4990323;28;20335;-81
2023/12/09 00:23:27;;;;;;;23.80;16.30;;;;;;;;;;4989395;28;20192;-81
2023/12/09 00:25:53;;;;;;;31.37;18.97;;;;;;;;;;4972825;28;20211;-82
2023/12/09 00:28:20;;;;;;;32.40;19.73;;;;;;;;;;4975886;28;20683;-81
2023/12/09 00:30:46;;;;;;;40.87;21.40;;;;;;;;;;4969110;28;20215;-81
2023/12/09 00:33:12;;;;;;;35.10;20.37;;;;;;;;;;4988298;28;20176;-81
2023/12/09 00:35:38;;;;;;;32.07;20.20;;;;;;;;;;4984732;28;20206;-82
2023/12/09 00:38:04;;;;;;;30.53;19.80;;;;;;;;;;4989520;28;20218;-81
2023/12/09 00:40:30;;;;;;;29.87;17.93;;;;;;;;;;4971795;28;20275;-81
2023/12/09 00:42:57;;;;;;;25.93;17.07;;;;;;;;;;4990076;28;20176;-81
2023/12/09 00:45:25;;;;;;;23.67;16.47;;;;;;;;;;4986546;28;20195;-81
2023/12/09 00:47:51;;;;;;;24.13;17.13;;;;;;;;;;4985974;28;20195;-82
2023/12/09 00:50:17;;;;;;;20.57;15.47;;;;;;;;;;4985675;28;20223;-81
2023/12/09 00:52:43;;;;;;;23.47;15.93;;;;;;;;;;4985604;28;20184;-81
2023/12/09 00:55:11;;;;;;;20.47;15.07;;;;;;;;;;4971523;28;20188;-82
2023/12/09 00:57:37;;;;;;;23.87;16.43;;;;;;;;;;4972223;28;20242;-81
2023/12/09 01:00:04;;;;;;;23.00;16.00;;;;;;;;;;4989968;28;20211;-81
2023/12/09 01:02:31;;;;;;;23.20;16.40;;;;;;;;;;4976159;28;20731;-81
2023/12/09 01:04:57;;;;;;;21.57;15.23;;;;;;;;;;4978960;28;20195;-81
2023/12/09 01:07:24;;;;;;;20.77;16.33;;;;;;;;;;4976772;28;20184;-81
2023/12/09 01:09:50;;;;;;;22.70;16.33;;;;;;;;;;4975392;28;20211;-82
2023/12/09 01:12:16;;;;;;;22.90;16.60;;;;;;;;;;4975402;28;20461;-81
2023/12/09 01:14:42;;;;;;;23.70;16.93;;;;;;;;;;4995533;28;20250;-82
2023/12/09 01:17:08;;;;;;;24.87;17.70;;;;;;;;;;4995739;28;20271;-81
2023/12/09 01:19:35;;;;;;;24.30;16.20;;;;;;;;;;4973183;28;20522;-82
2023/12/09 01:22:01;;;;;;;20.87;16.20;;;;;;;;;;4975625;28;20184;-82
2023/12/09 01:24:27;;;;;;;22.20;15.97;;;;;;;;;;4955317;28;20832;-82
2023/12/09 01:26:53;;;;;;;22.63;15.97;;;;;;;;;;4972089;28;20199;-82
2023/12/09 01:29:19;;;;;;;21.70;15.67;;;;;;;;;;4991197;28;20216;-81
2023/12/09 01:31:45;;;;;;;22.47;15.67;;;;;;;;;;4956083;28;20202;-82
2023/12/09 01:34:11;;;;;;;18.67;14.10;;;;;;;;;;4975192;28;20192;-81
2023/12/09 01:36:37;;;;;;;23.30;16.23;;;;;;;;;;4974595;28;20188;-81
2023/12/09 01:39:04;;;;;;;22.87;16.37;;;;;;;;;;4990230;28;20216;-81
2023/12/09 01:41:30;;;;;;;24.53;17.23;;;;;;;;;;4975619;28;20620;-81
2023/12/09 01:43:56;;;;;;;19.13;14.50;;;;;;;;;;4974944;28;20214;-81
2023/12/09 01:46:23;;;;;;;20.90;14.57;;;;;;;;;;4974892;28;20210;-81
2023/12/09 01:48:49;;;;;;;19.27;13.80;;;;;;;;;;4974407;28;20278;-81
2023/12/09 01:51:16;;;;;;;20.40;14.47;;;;;;;;;;4974279;28;20271;-82
2023/12/09 01:53:43;;;;;;;19.17;14.13;;;;;;;;;;4971440;28;20662;-81
2023/12/09 01:56:10;;;;;;;18.70;14.07;;;;;;;;;;4990988;28;20378;-81
2023/12/09 01:58:37;;;;;;;17.83;13.47;;;;;;;;;;4992949;28;20196;-81
2023/12/09 02:01:04;;;;;;;19.00;14.43;;;;;;;;;;4990578;28;20179;-82
2023/12/09 02:03:31;;;;;;;21.23;14.97;;;;;;;;;;4964297;28;20711;-81
2023/12/09 02:05:57;;;;;;;18.43;13.77;;;;;;;;;;4957949;28;20215;-82
2023/12/09 02:08:23;;;;;;;20.10;15.10;;;;;;;;;;4990673;28;20577;-81
2023/12/09 02:10:56;;;;;;;18.30;14.33;;;;;;;;;;4974303;28;20230;-81
2023/12/09 02:13:24;;;;;;;20.80;14.63;;;;;;;;;;4990877;28;20200;-82
2023/12/09 02:15:55;;;;;;;23.50;14.90;;;;;;;;;;4989783;28;20318;-82
2023/12/09 02:18:23;;;;;;;18.97;13.77;;;;;;;;;;4967683;28;20195;-82
2023/12/09 02:20:49;;;;;;;18.33;13.73;;;;;;;;;;4974460;28;20187;-83
2023/12/09 02:23:15;;;;;;;17.97;13.23;;;;;;;;;;4991921;28;20175;-82
2023/12/09 02:25:42;;;;;;;18.60;13.93;;;;;;;;;;4971080;28;20416;-82
2023/12/09 02:28:20;;;;;;;18.30;13.90;;;;;;;;;;4973940;28;20294;-82
2023/12/09 02:30:51;;;;;;;17.67;14.07;;;;;;;;;;4971732;28;20365;-82
2023/12/09 02:33:18;;;;;;;18.87;14.23;;;;;;;;;;4974578;28;20680;-82
2023/12/09 02:35:45;;;;;;;19.17;12.93;;;;;;;;;;4974714;28;20279;-82
2023/12/09 02:38:12;;;;;;;17.70;13.83;;;;;;;;;;4990714;28;20200;-82
2023/12/09 02:40:38;;;;;;;19.27;13.27;;;;;;;;;;4976132;28;20220;-82
2023/12/09 02:43:05;;;;;;;16.83;13.27;;;;;;;;;;4976682;28;20192;-82
2023/12/09 02:45:31;;;;;;;20.40;15.00;;;;;;;;;;4990187;28;20742;-82
2023/12/09 02:47:57;;;;;;;21.90;14.63;;;;;;;;;;4974865;28;20215;-82
2023/12/09 02:50:23;;;;;;;23.53;14.50;;;;;;;;;;4959747;28;20215;-82
2023/12/09 02:52:50;;;;;;;17.20;12.80;;;;;;;;;;4974335;28;20191;-82
2023/12/09 02:55:17;;;;;;;19.40;14.77;;;;;;;;;;4974247;28;20231;-82
2023/12/09 02:57:44;;;;;;;20.53;14.77;;;;;;;;;;4974011;28;20184;-81
2023/12/09 03:00:10;;;;;;;21.17;14.63;;;;;;;;;;4990475;28;20195;-82
2023/12/09 03:02:36;;;;;;;20.13;14.47;;;;;;;;;;4990542;28;20283;-82
2023/12/09 03:05:02;;;;;;;21.23;14.63;;;;;;;;;;4997309;28;20199;-82
2023/12/09 03:07:28;;;;;;;19.10;13.90;;;;;;;;;;4977855;28;20192;-82
2023/12/09 03:09:55;;;;;;;18.87;14.53;;;;;;;;;;4988393;28;20314;-81
2023/12/09 03:12:21;;;;;;;22.50;15.67;;;;;;;;;;4977883;28;20215;-82
2023/12/09 03:14:47;;;;;;;22.83;15.83;;;;;;;;;;4988128;28;20217;-81
2023/12/09 03:17:13;;;;;;;22.37;15.47;;;;;;;;;;4993793;28;20687;-82
2023/12/09 03:19:39;;;;;;;25.80;17.33;;;;;;;;;;4994070;28;20203;-81
2023/12/09 03:22:05;;;;;;;25.97;17.97;;;;;;;;;;4966315;28;20196;-82
2023/12/09 03:24:32;;;;;;;22.73;16.77;;;;;;;;;;4988591;28;20618;-81
2023/12/09 03:26:58;;;;;;;21.70;14.80;;;;;;;;;;4970772;28;20199;-81
2023/12/09 03:29:24;;;;;;;24.03;15.43;;;;;;;;;;4992098;28;20218;-82
2023/12/09 03:31:50;;;;;;;22.43;15.70;;;;;;;;;;4975795;28;20191;-82
2023/12/09 03:34:16;;;;;;;24.47;15.43;;;;;;;;;;4992347;28;20176;-81
2023/12/09 03:36:42;;;;;;;19.37;13.83;;;;;;;;;;4992320;28;20187;-82
2023/12/09 03:39:09;;;;;;;22.37;15.43;;;;;;;;;;4986623;28;20561;-82
2023/12/09 03:41:36;;;;;;;19.57;14.20;;;;;;;;;;4991038;28;20274;-82
2023/12/09 03:44:02;;;;;;;21.53;14.87;;;;;;;;;;4975961;28;20216;-82
2023/12/09 03:46:29;;;;;;;26.80;16.63;;;;;;;;;;4988825;28;20184;-81
2023/12/09 03:48:55;;;;;;;18.70;13.93;;;;;;;;;;4991692;28;20218;-81
2023/12/09 03:51:21;;;;;;;18.87;14.90;;;;;;;;;;4975998;28;20184;-82
2023/12/09 03:53:47;;;;;;;21.23;15.30;;;;;;;;;;4976291;28;20558;-81
2023/12/09 03:56:16;;;;;;;20.77;14.23;;;;;;;;;;4990009;28;20179;-82
2023/12/09 03:58:42;;;;;;;23.17;15.80;;;;;;;;;;5008319;28;20204;-81
2023/12/09 04:01:09;;;;;;;25.37;17.30;;;;;;;;;;4992379;28;20200;-82
2023/12/09 04:03:35;;;;;;;21.17;14.97;;;;;;;;;;4980607;28;20188;-82
2023/12/09 04:06:03;;;;;;;21.50;13.93;;;;;;;;;;4990135;28;20211;-82
2023/12/09 04:08:29;;;;;;;17.67;13.13;;;;;;;;;;4969447;28;20211;-82
2023/12/09 04:10:55;;;;;;;17.37;13.20;;;;;;;;;;4974681;28;20672;-81
2023/12/09 04:13:21;;;;;;;20.30;13.73;;;;;;;;;;4991268;28;20187;-81
2023/12/09 04:15:48;;;;;;;25.67;14.47;;;;;;;;;;4988215;28;20184;-82
2023/12/09 04:18:14;;;;;;;19.30;13.33;;;;;;;;;;4958386;28;20415;-81
2023/12/09 04:20:41;;;;;;;21.33;12.73;;;;;;;;;;4965411;28;20275;-82
2023/12/09 04:23:07;;;;;;;19.40;13.53;;;;;;;;;;4984898;28;20191;-81
2023/12/09 04:25:33;;;;;;;19.80;14.17;;;;;;;;;;4965253;28;20210;-82
2023/12/09 04:27:59;;;;;;;22.83;14.67;;;;;;;;;;4972402;28;20476;-82
2023/12/09 04:30:25;;;;;;;19.43;13.70;;;;;;;;;;4993591;28;20199;-81
2023/12/09 04:32:51;;;;;;;19.43;14.20;;;;;;;;;;4978754;28;20647;-82
2023/12/09 04:35:18;;;;;;;22.50;13.73;;;;;;;;;;4993636;28;20237;-82
2023/12/09 04:37:44;;;;;;;20.57;13.93;;;;;;;;;;4977306;28;20242;-81
2023/12/09 04:40:10;;;;;;;20.93;14.10;;;;;;;;;;4990108;28;20191;-82
2023/12/09 04:42:40;;;;;;;19.27;13.73;;;;;;;;;;4993544;28;20694;-82
2023/12/09 04:45:07;;;;;;;17.90;11.90;;;;;;;;;;4990247;28;20339;-82
2023/12/09 04:47:34;;;;;;;20.53;13.50;;;;;;;;;;4987032;28;20184;-82
2023/12/09 04:50:00;;;;;;;22.80;13.97;;;;;;;;;;4988460;28;20211;-82
2023/12/09 04:52:26;;;;;;;22.20;14.70;;;;;;;;;;4986721;28;20184;-82
2023/12/09 04:54:53;;;;;;;19.27;13.83;;;;;;;;;;4990552;28;20184;-82
2023/12/09 04:57:19;;;;;;;20.40;14.03;;;;;;;;;;4987406;28;20180;-82
2023/12/09 04:59:45;;;;;;;21.97;13.97;;;;;;;;;;4991674;28;20200;-81
2023/12/09 05:02:11;;;;;;;21.57;14.73;;;;;;;;;;4970337;28;20649;-82
2023/12/09 05:04:37;;;;;;;24.87;13.93;;;;;;;;;;4982785;28;20201;-81
2023/12/09 05:07:03;;;;;;;21.77;13.83;;;;;;;;;;4989814;28;20187;-82
2023/12/09 05:09:30;;;;;;;23.27;13.07;;;;;;;;;;4969207;28;20215;-82
2023/12/09 05:11:56;;;;;;;20.00;13.40;;;;;;;;;;4968178;28;20196;-82
2023/12/09 05:14:22;;;;;;;22.80;12.63;;;;;;;;;;4984726;28;21234;-82
2023/12/09 05:16:49;;;;;;;19.43;12.43;;;;;;;;;;4987255;28;20223;-82
2023/12/09 05:19:15;;;;;;;20.30;11.77;;;;;;;;;;4959883;28;20536;-82
2023/12/09 05:21:41;;;;;;;17.30;10.97;;;;;;;;;;4989735;28;20872;-81
2023/12/09 05:24:07;;;;;;;20.53;11.53;;;;;;;;;;4973221;28;20258;-81
2023/12/09 05:26:33;;;;;;;21.40;11.77;;;;;;;;;;4973471;28;20278;-82
2023/12/09 05:29:00;;;;;;;21.13;12.67;;;;;;;;;;4981498;28;20546;-82
2023/12/09 05:31:26;;;;;;;18.23;12.50;;;;;;;;;;4970241;28;20283;-82
2023/12/09 05:33:54;;;;;;;22.60;13.27;;;;;;;;;;4974761;28;20219;-81
2023/12/09 05:36:20;;;;;;;24.03;13.60;;;;;;;;;;4988897;28;20184;-81
2023/12/09 05:38:46;;;;;;;22.77;12.47;;;;;;;;;;4991654;28;20219;-82
2023/12/09 05:41:12;;;;;;;21.77;12.93;;;;;;;;;;4991722;28;20212;-82
2023/12/09 05:43:39;;;;;;;24.73;14.60;;;;;;;;;;4993147;28;20187;-82
2023/12/09 05:46:05;;;;;;;24.97;13.90;;;;;;;;;;4978547;28;20640;-82
2023/12/09 05:48:33;;;;;;;25.53;15.03;;;;;;;;;;4960790;28;20761;-82
2023/12/09 05:50:59;;;;;;;22.73;13.87;;;;;;;;;;4981838;28;20281;-82
2023/12/09 05:53:26;;;;;;;21.33;13.47;;;;;;;;;;4973771;28;20180;-82
2023/12/09 05:55:52;;;;;;;23.10;13.67;;;;;;;;;;4982615;28;20227;-82
2023/12/09 05:58:18;;;;;;;21.73;13.10;;;;;;;;;;4984008;28;20207;-82
2023/12/09 06:00:45;;;;;;;26.43;13.47;;;;;;;;;;4970105;28;20223;-82
2023/12/09 06:03:11;;;;;;;22.13;13.20;;;;;;;;;;4965364;28;20766;-82
2023/12/09 06:05:37;;;;;;;21.73;13.00;;;;;;;;;;4989724;28;20619;-82
2023/12/09 06:08:04;;;;;;;20.00;11.90;;;;;;;;;;4991212;28;20706;-82
2023/12/09 06:10:30;;;;;;;22.33;12.70;;;;;;;;;;4975701;28;20231;-82
2023/12/09 06:12:56;;;;;;;22.30;12.37;;;;;;;;;;4991864;28;20196;-82
2023/12/09 06:15:22;;;;;;;17.90;11.90;;;;;;;;;;4991503;28;20567;-82
2023/12/09 06:17:48;;;;;;;21.60;11.67;;;;;;;;;;4971953;28;20208;-82
2023/12/09 06:20:14;;;;;;;19.13;10.80;;;;;;;;;;4987214;28;20221;-82
2023/12/09 06:22:40;;;;;;;22.80;13.00;;;;;;;;;;4966141;28;20195;-82
2023/12/09 06:25:08;;;;;;;19.90;11.90;;;;;;;;;;4984855;28;20213;-82
2023/12/09 06:27:35;;;;;;;25.13;13.07;;;;;;;;;;4974055;28;20207;-82
2023/12/09 06:30:01;;;;;;;23.40;12.13;;;;;;;;;;4974274;28;20294;-82
2023/12/09 06:32:28;;;;;;;23.50;13.87;;;;;;;;;;4985107;28;20180;-82
2023/12/09 06:34:54;;;;;;;23.80;13.37;;;;;;;;;;4967983;28;20238;-82
2023/12/09 06:37:20;;;;;;;20.80;13.00;;;;;;;;;;4973880;28;20233;-82
2023/12/09 06:39:46;;;;;;;21.10;12.60;;;;;;;;;;4970141;28;20204;-82
2023/12/09 06:42:13;;;;;;;21.73;12.63;;;;;;;;;;4970430;28;20190;-82
2023/12/09 06:44:40;;;;;;;18.97;11.77;;;;;;;;;;4988885;28;20194;-81
2023/12/09 06:47:06;;;;;;;17.73;11.47;;;;;;;;;;4966295;28;20610;-81
2023/12/09 06:49:32;;;;;;;19.70;11.47;;;;;;;;;;4950361;28;20218;-82
2023/12/09 06:51:59;;;;;;;19.63;11.10;;;;;;;;;;4980289;28;20633;-83
2023/12/09 06:54:25;;;;;;;19.50;10.70;;;;;;;;;;4954322;28;20200;-82
2023/12/09 06:56:52;;;;;;;19.40;10.03;;;;;;;;;;4988893;28;20275;-83
2023/12/09 06:59:18;;;;;;;19.53;9.83;;;;;;;;;;4991337;28;20220;-84
2023/12/09 07:01:44;;;;;;;20.73;10.97;;;;;;;;;;4974724;28;20223;-83
2023/12/09 07:04:12;;;;;;;21.80;10.67;;;;;;;;;;4974524;28;20192;-84
2023/12/09 07:06:38;;;;;;;22.53;11.27;;;;;;;;;;4974694;28;20675;-85
2023/12/09 07:09:04;;;;;;;22.17;10.40;;;;;;;;;;4974872;28;20218;-85
2023/12/09 07:11:32;;;;;;;20.17;9.90;;;;;;;;;;4974935;28;20184;-83
2023/12/09 07:13:58;;;;;;;25.13;11.77;;;;;;;;;;4969452;28;20195;-82
2023/12/09 07:16:24;;;;;;;20.80;12.50;;;;;;;;;;4974695;28;20271;-83
2023/12/09 07:18:53;;;;;;;19.63;12.17;;;;;;;;;;4973491;28;20612;-83
2023/12/09 07:21:19;;;;;;;24.67;13.57;;;;;;;;;;4977028;28;20242;-82
2023/12/09 07:23:45;;;;;;;26.37;14.70;;;;;;;;;;4994712;28;20183;-83
2023/12/09 07:26:12;;;;;;;26.40;14.93;;;;;;;;;;5002864;28;20203;-82
2023/12/09 07:28:38;;;;;;;24.63;13.80;;;;;;;;;;4976177;28;20575;-82
2023/12/09 07:31:04;;;;;;;24.40;15.20;;;;;;;;;;4982584;28;20655;-82
2023/12/09 07:33:30;;;;;;;22.40;15.10;;;;;;;;;;4967183;28;20211;-83
2023/12/09 07:35:56;;;;;;;23.17;14.33;;;;;;;;;;4985471;28;20192;-82
2023/12/09 07:38:22;;;;;;;22.53;13.90;;;;;;;;;;4980840;28;20212;-82
2023/12/09 07:40:49;;;;;;;25.43;14.50;;;;;;;;;;4980326;28;20198;-82
2023/12/09 07:43:15;;;;;;;26.83;15.53;;;;;;;;;;4994990;28;20177;-85
2023/12/09 07:45:41;;;;;;;24.63;15.20;;;;;;;;;;4979428;28;20690;-83
2023/12/09 07:48:07;;;;;;;22.90;14.90;;;;;;;;;;4977454;28;20203;-82
2023/12/09 07:50:35;;;;;;;19.83;13.97;;;;;;;;;;4967365;28;20211;-79
2023/12/09 07:53:04;;;;;;;24.60;16.33;;;;;;;;;;4974580;28;20184;-79
2023/12/09 07:55:30;;;;;;;22.03;14.77;;;;;;;;;;4973571;28;20184;-78
2023/12/09 07:57:56;;;;;;;24.63;16.13;;;;;;;;;;4990408;28;20660;-78
2023/12/09 08:00:26;;;;;;;23.83;15.10;;;;;;;;;;4965958;28;20188;-78
2023/12/09 08:02:54;;;;;;;29.50;16.73;;;;;;;;;;4966051;28;20223;-78
2023/12/09 08:05:21;;;;;;;26.67;16.13;;;;;;;;;;4959510;28;20233;-78
2023/12/09 08:07:47;;;;;;;26.73;16.20;;;;;;;;;;4994489;28;20255;-78
2023/12/09 08:10:14;;;;;;;26.07;15.60;;;;;;;;;;4975917;28;20298;-78
2023/12/09 08:12:40;;;;;;;22.97;16.23;;;;;;;;;;4993807;28;20253;-79
2023/12/09 08:15:06;;;;;;;28.50;16.27;;;;;;;;;;4996891;28;20672;-79
2023/12/09 08:17:33;;;;;;;27.17;16.47;;;;;;;;;;4995917;28;20647;-78
2023/12/09 08:20:00;;;;;;;25.70;15.17;;;;;;;;;;4995942;28;20286;-79
2023/12/09 08:22:26;;;;;;;21.87;13.93;;;;;;;;;;4993795;28;20278;-79
2023/12/09 08:24:52;;;;;;;20.27;12.13;;;;;;;;;;4994205;28;20196;-79
2023/12/09 08:27:18;;;;;;;21.53;13.50;;;;;;;;;;4990711;28;20207;-79
2023/12/09 08:29:45;;;;;;;20.23;12.80;;;;;;;;;;4970249;28;20255;-79
2023/12/09 08:32:11;;;;;;;19.47;11.17;;;;;;;;;;4995223;28;20563;-80
2023/12/09 08:34:37;;;;;;;20.97;12.00;;;;;;;;;;4993104;28;20187;-79
2023/12/09 08:37:03;;;;;;;22.93;12.10;;;;;;;;;;4993693;28;20188;-79
2023/12/09 08:39:30;;;;;;;21.53;12.60;;;;;;;;;;4994355;28;20212;-79
2023/12/09 08:41:56;;;;;;;21.23;12.07;;;;;;;;;;4975978;28;20203;-79
2023/12/09 08:44:22;;;;;;;23.60;12.93;;;;;;;;;;4994020;28;21065;-79
2023/12/09 08:46:51;;;;;;;17.77;11.67;;;;;;;;;;4994826;28;20215;-79
2023/12/09 08:49:17;;;;;;;21.70;12.07;;;;;;;;;;4960849;28;20581;-77
2023/12/09 08:51:46;;;;;;;22.40;12.70;;;;;;;;;;4989239;28;20240;-78
2023/12/09 08:54:13;;;;;;;23.77;12.90;;;;;;;;;;4985799;28;20188;-77
2023/12/09 08:56:39;;;;;;;17.43;11.97;;;;;;;;;;4990571;28;20270;-78
2023/12/09 08:59:10;;;;;;;19.77;12.17;;;;;;;;;;4992408;28;20207;-76
2023/12/09 09:01:36;;;;;;;15.57;11.33;;;;;;;;;;4989520;28;20266;-76
2023/12/09 09:04:02;;;;;;;14.60;10.47;;;;;;;;;;4991234;28;20188;-76
2023/12/09 09:06:29;;;;;;;20.63;12.07;;;;;;;;;;4993558;28;20171;-76
2023/12/09 09:08:55;;;;;;;17.83;11.90;;;;;;;;;;4992859;28;20200;-76
2023/12/09 09:11:21;;;;;;;21.87;11.93;;;;;;;;;;4989665;28;20218;-76
2023/12/09 09:13:47;;;;;;;18.03;11.40;;;;;;;;;;4988015;28;20291;-77
2023/12/09 09:16:17;;;;;;;20.50;11.70;;;;;;;;;;4985143;28;20203;-76
2023/12/09 09:18:43;;;;;;;17.90;11.33;;;;;;;;;;4990347;28;20212;-76
2023/12/09 09:21:09;;;;;;;22.00;12.00;;;;;;;;;;4992059;28;20180;-77
2023/12/09 09:23:36;;;;;;;19.10;11.43;;;;;;;;;;4990530;28;20210;-76
2023/12/09 09:26:02;;;;;;;21.50;11.17;;;;;;;;;;4974362;28;20616;-76
2023/12/09 09:28:28;;;;;;;20.70;11.17;;;;;;;;;;4989917;28;20204;-77
2023/12/09 09:30:54;;;;;;;21.00;10.40;;;;;;;;;;4989165;28;20212;-76
2023/12/09 09:33:20;;;;;;;17.30;10.17;;;;;;;;;;4988492;28;20216;-76
2023/12/09 09:35:51;;;;;;;17.27;10.50;;;;;;;;;;4988298;28;20238;-77
2023/12/09 09:38:17;;;;;;;16.53;10.27;;;;;;;;;;4990359;28;20302;-76
2023/12/09 09:40:43;;;;;;;15.30;9.77;;;;;;;;;;4989977;28;20184;-76
2023/12/09 09:43:13;;;;;;;19.17;10.43;;;;;;;;;;4988863;28;20274;-76
2023/12/09 09:45:40;;;;;;;14.50;9.43;;;;;;;;;;4973783;28;20187;-76
2023/12/09 09:48:10;;;;;;;21.20;9.83;;;;;;;;;;4987070;28;21671;-76
2023/12/09 09:50:41;;;;;;;14.00;9.30;;;;;;;;;;4990978;28;20315;-76
2023/12/09 09:53:12;;;;;;;16.87;10.03;;;;;;;;;;4988891;28;20195;-76
2023/12/09 09:55:44;;;;;;;13.73;8.53;;;;;;;;;;4988975;28;20186;-79
2023/12/09 09:58:12;;;;;;;15.37;8.90;;;;;;;;;;4990466;28;20203;-76
2023/12/09 10:00:39;;;;;;;13.73;8.50;;;;;;;;;;4991305;28;20188;-76
2023/12/09 10:03:05;;;;;;;13.83;8.97;;;;;;;;;;4989184;28;20188;-76
2023/12/09 10:05:31;;;;;;;14.90;8.90;;;;;;;;;;4988880;28;20219;-76
2023/12/09 10:07:58;;;;;;;14.43;8.37;;;;;;;;;;4989872;28;20664;-76
2023/12/09 10:10:24;;;;;;;13.80;7.90;;;;;;;;;;4990759;28;20211;-76
2023/12/09 10:12:50;;;;;;;11.30;7.37;;;;;;;;;;4990020;28;20203;-77
2023/12/09 10:15:16;;;;;;;12.70;7.90;;;;;;;;;;4988214;28;20222;-77
2023/12/09 10:17:42;;;;;;;11.90;6.83;;;;;;;;;;4988931;28;20270;-76
2023/12/09 10:20:10;;;;;;;11.63;6.53;;;;;;;;;;4988973;28;20298;-76
2023/12/09 10:22:38;;;;;;;13.40;6.90;;;;;;;;;;4988816;28;20557;-77
2023/12/09 10:25:04;;;;;;;11.80;6.60;;;;;;;;;;4988853;28;20597;-75
2023/12/09 10:27:30;;;;;;;13.10;6.20;;;;;;;;;;4989437;28;20211;-76
2023/12/09 10:29:56;;;;;;;9.07;6.50;;;;;;;;;;4988909;28;20282;-75
2023/12/09 10:32:23;;;;;;;10.80;6.37;;;;;;;;;;4988679;28;20247;-76
2023/12/09 10:34:49;;;;;;;9.90;6.53;;;;;;;;;;4987220;28;20580;-75
2023/12/09 10:37:16;;;;;;;9.93;5.40;;;;;;;;;;4988996;28;20188;-75
2023/12/09 10:39:43;;;;;;;8.70;5.67;;;;;;;;;;4990703;28;20214;-75
2023/12/09 10:42:09;;;;;;;14.17;5.57;;;;;;;;;;4988235;28;20284;-75
2023/12/09 10:44:36;;;;;;;9.47;5.27;;;;;;;;;;4991138;28;20187;-77
2023/12/09 10:47:02;;;;;;;9.27;4.97;;;;;;;;;;4990334;28;20730;-75
2023/12/09 10:49:28;;;;;;;11.07;5.33;;;;;;;;;;4987557;28;20306;-78
2023/12/09 10:51:54;;;;;;;9.77;5.33;;;;;;;;;;4991089;28;20188;-77
2023/12/09 10:54:20;;;;;;;9.37;5.13;;;;;;;;;;4971820;28;20196;-77
2023/12/09 10:56:46;;;;;;;9.80;5.07;;;;;;;;;;4992045;28;20179;-77
2023/12/09 10:59:13;;;;;;;10.60;5.47;;;;;;;;;;4988958;28;20698;-77
2023/12/09 11:01:40;;;;;;;8.37;5.60;;;;;;;;;;4991693;28;20184;-81
2023/12/09 11:04:08;;;;;;;9.80;4.93;;;;;;;;;;4987297;28;20188;-78
2023/12/09 11:06:37;;;;;;;8.03;4.80;;;;;;;;;;4990449;28;20179;-80
2023/12/09 11:09:05;;;;;;;7.27;5.03;;;;;;;;;;5005251;28;20231;-79
2023/12/09 11:11:31;;;;;;;8.83;5.27;;;;;;;;;;4995210;28;20216;-78
2023/12/09 11:13:58;;;;;;;11.23;5.57;;;;;;;;;;4994829;28;20192;-79
2023/12/09 11:16:27;;;;;;;8.63;5.00;;;;;;;;;;5004742;28;20202;-79
2023/12/09 11:18:57;;;;;;;11.10;4.87;;;;;;;;;;4994651;28;20212;-77
2023/12/09 11:21:25;;;;;;;9.43;5.20;;;;;;;;;;4993208;28;20203;-78
2023/12/09 11:23:52;;;;;;;9.83;5.03;;;;;;;;;;4987532;28;20281;-78
2023/12/09 11:26:20;;;;;;;8.73;4.73;;;;;;;;;;4992447;28;20554;-78
2023/12/09 11:29:04;;;;;;;8.93;4.83;;;;;;;;;;4999165;28;20202;-78
2023/12/09 11:31:34;;;;;;;5.13;4.00;;;;;;;;;;4991019;28;20223;-79
2023/12/09 11:34:01;;;;;;;7.13;4.17;;;;;;;;;;4993537;28;20183;-79
2023/12/09 11:36:29;;;;;;;8.13;4.33;;;;;;;;;;4995265;28;20180;-78
2023/12/09 11:38:56;;;;;;;9.80;4.13;;;;;;;;;;4992229;28;20203;-79
2023/12/09 11:41:22;;;;;;;5.40;3.60;;;;;;;;;;4992683;28;20199;-79
2023/12/09 11:43:49;;;;;;;5.47;3.27;;;;;;;;;;4991985;28;20190;-79
2023/12/09 11:46:16;;;;;;;6.27;3.77;;;;;;;;;;4991538;28;20192;-79
2023/12/09 11:48:44;;;;;;;6.90;3.47;;;;;;;;;;4989415;28;20209;-79
2023/12/09 11:51:10;;;;;;;7.10;3.57;;;;;;;;;;4990595;28;20215;-79
2023/12/09 11:53:36;;;;;;;7.77;3.87;;;;;;;;;;4990428;28;20222;-79
2023/12/09 11:56:02;;;;;;;5.60;3.33;;;;;;;;;;4986232;28;20207;-79
2023/12/09 11:58:29;;;;;;;7.03;3.40;;;;;;;;;;4987861;28;20204;-79
2023/12/09 12:00:55;;;;;;;6.73;3.10;;;;;;;;;;4987848;28;20183;-79
2023/12/09 12:03:21;;;;;;;4.90;2.80;;;;;;;;;;4989419;28;20188;-79
2023/12/09 12:05:47;;;;;;;6.80;2.70;;;;;;;;;;4989480;28;20270;-84
2023/12/09 12:08:16;;;;;;;5.43;2.77;;;;;;;;;;4971167;28;20200;-79
2023/12/09 12:10:42;;;;;;;4.53;2.90;;;;;;;;;;4989267;28;20218;-82
2023/12/09 12:13:08;;;;;;;5.60;3.27;;;;;;;;;;4971212;28;20308;-80
2023/12/09 12:15:35;;;;;;;7.60;3.17;;;;;;;;;;4988143;28;20649;-78
2023/12/09 12:18:01;;;;;;;5.13;2.70;;;;;;;;;;4986809;28;20192;-80
2023/12/09 12:20:28;;;;;;;7.83;3.00;;;;;;;;;;4984568;28;20222;-76
2023/12/09 12:22:54;;;;;;;5.70;3.13;;;;;;;;;;4987690;28;20640;-75
2023/12/09 12:25:20;;;;;;;6.10;2.70;;;;;;;;;;4988243;28;20188;-80
2023/12/09 12:27:46;;;;;;;4.37;2.60;;;;;;;;;;4986372;28;20191;-78
2023/12/09 12:30:15;;;;;;;4.60;2.80;;;;;;;;;;4987783;28;20236;-78
2023/12/09 12:32:42;;;;;;;4.70;2.67;;;;;;;;;;4981872;28;20176;-77
2023/12/09 12:35:08;;;;;;;5.20;2.60;;;;;;;;;;4970023;28;20188;-78
2023/12/09 12:37:35;;;;;;;3.77;2.50;;;;;;;;;;4986188;28;20191;-79
2023/12/09 12:40:01;;;;;;;3.83;2.57;;;;;;;;;;4970679;28;20212;-81
2023/12/09 12:42:27;;;;;;;4.97;2.33;;;;;;;;;;4987917;28;20188;-82
2023/12/09 12:44:53;;;;;;;5.40;2.57;;;;;;;;;;4993492;28;20516;-82
2023/12/09 12:47:20;;;;;;;5.03;2.53;;;;;;;;;;4974570;28;20283;-82
2023/12/09 12:49:46;;;;;;;4.77;2.53;;;;;;;;;;4973761;28;20250;-82
2023/12/09 12:52:12;;;;;;;5.87;2.83;;;;;;;;;;4977838;28;20231;-82
2023/12/09 12:54:39;;;;;;;6.70;2.93;;;;;;;;;;4978748;28;20275;-82
2023/12/09 12:57:05;;;;;;;4.67;2.50;;;;;;;;;;4976844;28;20223;-83
2023/12/09 12:59:31;;;;;;;5.10;2.43;;;;;;;;;;4976510;28;20204;-82
2023/12/09 13:01:59;;;;;;;3.70;2.23;;;;;;;;;;4976693;28;20275;-83
2023/12/09 13:04:25;;;;;;;4.33;2.20;;;;;;;;;;4991202;28;20557;-82
2023/12/09 13:06:51;;;;;;;5.60;2.50;;;;;;;;;;4975295;28;20239;-83
2023/12/09 13:09:17;;;;;;;6.73;3.20;;;;;;;;;;4976954;28;20207;-82
2023/12/09 13:11:44;;;;;;;5.40;2.50;;;;;;;;;;4976390;28;20215;-82
2023/12/09 13:14:10;;;;;;;5.40;2.70;;;;;;;;;;4964225;28;20199;-82
2023/12/09 13:16:39;;;;;;;5.57;2.37;;;;;;;;;;4974076;28;20288;-82
2023/12/09 13:19:05;;;;;;;6.13;2.50;;;;;;;;;;4989640;28;20231;-82
2023/12/09 13:21:31;;;;;;;7.13;2.53;;;;;;;;;;4976789;28;20361;-82
2023/12/09 13:23:58;;;;;;;4.63;2.30;;;;;;;;;;4991845;28;20240;-77
2023/12/09 13:26:24;;;;;;;7.00;2.23;;;;;;;;;;4992104;28;20354;-78
2023/12/09 13:28:50;;;;;;;5.30;2.77;;;;;;;;;;4990946;28;20706;-77
2023/12/09 13:31:16;;;;;;;3.77;2.27;;;;;;;;;;4974982;28;20219;-77
2023/12/09 13:33:43;;;;;;;4.60;2.70;;;;;;;;;;4989539;28;20636;-76
2023/12/09 13:36:12;;;;;;;4.30;2.40;;;;;;;;;;4991453;28;20230;-76
2023/12/09 13:38:38;;;;;;;5.63;2.37;;;;;;;;;;4990600;28;20208;-76
2023/12/09 13:41:05;;;;;;;4.27;2.30;;;;;;;;;;4988916;28;20231;-76
2023/12/09 13:43:31;;;;;;;4.97;2.47;;;;;;;;;;4975809;28;20254;-77
2023/12/09 13:45:57;;;;;;;4.23;2.50;;;;;;;;;;4991889;28;20242;-76
2023/12/09 13:48:23;;;;;;;4.13;2.87;;;;;;;;;;4991093;28;20211;-76
2023/12/09 13:50:50;;;;;;;4.70;2.47;;;;;;;;;;4988762;28;20207;-77
2023/12/09 13:53:16;;;;;;;3.53;2.23;;;;;;;;;;4991875;28;20188;-76
2023/12/09 13:55:43;;;;;;;4.37;2.20;;;;;;;;;;4990136;28;20229;-76
2023/12/09 13:58:10;;;;;;;4.40;2.10;;;;;;;;;;4990057;28;20215;-76
2023/12/09 14:00:36;;;;;;;4.53;2.23;;;;;;;;;;4990905;28;20703;-76
2023/12/09 14:03:02;;;;;;;6.33;2.57;;;;;;;;;;4992489;28;20192;-76
2023/12/09 14:05:28;;;;;;;4.63;2.37;;;;;;;;;;4989520;28;20542;-76
2023/12/09 14:07:55;;;;;;;4.53;2.20;;;;;;;;;;4991162;28;20192;-76
2023/12/09 14:10:21;;;;;;;4.27;2.57;;;;;;;;;;4985182;28;20326;-76
2023/12/09 14:12:47;;;;;;;6.27;3.17;;;;;;;;;;4987619;28;20211;-76
2023/12/09 14:15:14;;;;;;;8.70;3.27;;;;;;;;;;4990925;28;20172;-76
2023/12/09 14:17:41;;;;;;;4.70;2.90;;;;;;;;;;4991528;28;20226;-76
2023/12/09 14:20:14;;;;;;;6.30;2.90;;;;;;;;;;4989128;28;20215;-76